sensor_id;sensor_type;location;lat;lon;timestamp;pressure;altitude;pressure_sealevel;temperature;humidity
63708;BME280;67643;-34.198;22.084;2023-04-15T00:00:53;101348.22;;;16.66;40.62
63708;BME280;67643;-34.198;22.084;2023-04-15T00:03:21;101342.54;;;16.91;40.30
63708;BME280;67643;-34.198;22.084;2023-04-15T00:05:50;101347.07;;;16.56;40.83
63708;BME280;67643;-34.198;22.084;2023-04-15T00:08:18;101348.61;;;16.60;40.95
63708;BME280;67643;-34.198;22.084;2023-04-15T00:10:47;101347.61;;;16.67;40.25
63708;BME280;67643;-34.198;22.084;2023-04-15T00:13:16;101339.58;;;16.60;40.85
63708;BME280;67643;-34.198;22.084;2023-04-15T00:15:44;101332.38;;;16.22;40.88
63708;BME280;67643;-34.198;22.084;2023-04-15T00:18:15;101333.07;;;16.40;40.83
63708;BME280;67643;-34.198;22.084;2023-04-15T00:20:43;101323.35;;;16.05;41.47
63708;BME280;67643;-34.198;22.084;2023-04-15T00:23:12;101322.11;;;16.06;41.36
63708;BME280;67643;-34.198;22.084;2023-04-15T00:25:41;101326.68;;;16.40;41.19
63708;BME280;67643;-34.198;22.084;2023-04-15T00:28:10;101329.95;;;16.84;40.58
63708;BME280;67643;-34.198;22.084;2023-04-15T00:30:39;101327.58;;;16.61;40.91
63708;BME280;67643;-34.198;22.084;2023-04-15T00:33:07;101324.38;;;16.14;41.09
63708;BME280;67643;-34.198;22.084;2023-04-15T00:35:36;101322.97;;;16.19;41.47
63708;BME280;67643;-34.198;22.084;2023-04-15T00:38:05;101329.90;;;15.81;41.68
63708;BME280;67643;-34.198;22.084;2023-04-15T00:40:34;101329.09;;;16.11;41.25
63708;BME280;67643;-34.198;22.084;2023-04-15T00:43:02;101329.99;;;16.59;40.58
63708;BME280;67643;-34.198;22.084;2023-04-15T00:45:31;101330.22;;;16.02;41.63
63708;BME280;67643;-34.198;22.084;2023-04-15T00:47:59;101328.38;;;16.67;40.54
63708;BME280;67643;-34.198;22.084;2023-04-15T00:50:28;101323.62;;;16.16;41.14
63708;BME280;67643;-34.198;22.084;2023-04-15T00:52:56;101324.43;;;16.54;40.66
63708;BME280;67643;-34.198;22.084;2023-04-15T00:55:25;101322.02;;;16.25;40.60
63708;BME280;67643;-34.198;22.084;2023-04-15T00:57:54;101322.09;;;16.11;41.23
63708;BME280;67643;-34.198;22.084;2023-04-15T01:00:23;101322.62;;;16.14;40.98
63708;BME280;67643;-34.198;22.084;2023-04-15T01:02:53;101314.08;;;16.42;41.03
63708;BME280;67643;-34.198;22.084;2023-04-15T01:05:21;101310.10;;;16.41;40.80
63708;BME280;67643;-34.198;22.084;2023-04-15T01:07:50;101308.36;;;15.88;41.60
63708;BME280;67643;-34.198;22.084;2023-04-15T01:10:19;101306.70;;;16.09;41.40
63708;BME280;67643;-34.198;22.084;2023-04-15T01:12:47;101307.33;;;16.52;40.99
63708;BME280;67643;-34.198;22.084;2023-04-15T01:15:16;101300.76;;;16.57;40.55
63708;BME280;67643;-34.198;22.084;2023-04-15T01:17:45;101293.60;;;16.35;40.93
63708;BME280;67643;-34.198;22.084;2023-04-15T01:20:15;101288.47;;;16.16;41.32
63708;BME280;67643;-34.198;22.084;2023-04-15T01:22:44;101287.15;;;16.20;41.32
63708;BME280;67643;-34.198;22.084;2023-04-15T01:25:16;101286.66;;;15.98;41.48
63708;BME280;67643;-34.198;22.084;2023-04-15T01:27:45;101282.31;;;15.89;41.03
63708;BME280;67643;-34.198;22.084;2023-04-15T01:30:14;101276.57;;;15.79;41.84
63708;BME280;67643;-34.198;22.084;2023-04-15T01:32:43;101272.73;;;15.79;41.42
63708;BME280;67643;-34.198;22.084;2023-04-15T01:35:13;101272.21;;;16.36;41.07
63708;BME280;67643;-34.198;22.084;2023-04-15T01:37:42;101268.06;;;16.23;40.77
63708;BME280;67643;-34.198;22.084;2023-04-15T01:40:11;101264.52;;;16.04;40.48
63708;BME280;67643;-34.198;22.084;2023-04-15T01:42:39;101259.55;;;16.33;40.66
63708;BME280;67643;-34.198;22.084;2023-04-15T01:45:09;101256.91;;;16.68;41.16
63708;BME280;67643;-34.198;22.084;2023-04-15T01:47:38;101254.17;;;16.15;40.79
63708;BME280;67643;-34.198;22.084;2023-04-15T01:50:07;101252.91;;;16.39;40.88
63708;BME280;67643;-34.198;22.084;2023-04-15T01:52:35;101245.46;;;16.29;40.18
63708;BME280;67643;-34.198;22.084;2023-04-15T01:55:05;101241.50;;;15.90;40.54
63708;BME280;67643;-34.198;22.084;2023-04-15T01:57:33;101244.65;;;15.79;41.26
63708;BME280;67643;-34.198;22.084;2023-04-15T02:00:01;101245.38;;;16.07;40.85
63708;BME280;67643;-34.198;22.084;2023-04-15T02:02:30;101246.83;;;16.01;40.90
63708;BME280;67643;-34.198;22.084;2023-04-15T02:04:59;101243.36;;;15.86;41.12
63708;BME280;67643;-34.198;22.084;2023-04-15T02:07:27;101238.34;;;15.73;41.47
63708;BME280;67643;-34.198;22.084;2023-04-15T02:09:56;101234.69;;;16.02;40.85
63708;BME280;67643;-34.198;22.084;2023-04-15T02:12:24;101229.85;;;16.09;40.98
63708;BME280;67643;-34.198;22.084;2023-04-15T02:14:53;101226.83;;;15.69;41.39
63708;BME280;67643;-34.198;22.084;2023-04-15T02:17:22;101227.27;;;15.99;41.13
63708;BME280;67643;-34.198;22.084;2023-04-15T02:19:51;101220.66;;;16.01;41.18
63708;BME280;67643;-34.198;22.084;2023-04-15T02:22:20;101220.68;;;16.25;40.83
63708;BME280;67643;-34.198;22.084;2023-04-15T02:24:48;101219.70;;;15.77;40.91
63708;BME280;67643;-34.198;22.084;2023-04-15T02:27:17;101219.76;;;15.92;40.60
63708;BME280;67643;-34.198;22.084;2023-04-15T02:29:45;101217.29;;;16.15;40.47
63708;BME280;67643;-34.198;22.084;2023-04-15T02:32:15;101210.76;;;16.18;40.76
63708;BME280;67643;-34.198;22.084;2023-04-15T02:34:43;101213.94;;;16.42;39.70
63708;BME280;67643;-34.198;22.084;2023-04-15T02:37:14;101215.03;;;16.62;40.59
63708;BME280;67643;-34.198;22.084;2023-04-15T02:39:43;101213.55;;;16.35;40.57
63708;BME280;67643;-34.198;22.084;2023-04-15T02:42:12;101220.42;;;16.16;40.59
63708;BME280;67643;-34.198;22.084;2023-04-15T02:44:40;101214.53;;;16.05;41.26
63708;BME280;67643;-34.198;22.084;2023-04-15T02:47:08;101207.59;;;16.48;40.93
63708;BME280;67643;-34.198;22.084;2023-04-15T02:49:37;101203.34;;;16.05;40.12
63708;BME280;67643;-34.198;22.084;2023-04-15T02:52:06;101203.60;;;16.65;40.32
63708;BME280;67643;-34.198;22.084;2023-04-15T02:54:34;101198.82;;;16.02;40.94
63708;BME280;67643;-34.198;22.084;2023-04-15T02:57:02;101200.37;;;16.55;40.66
63708;BME280;67643;-34.198;22.084;2023-04-15T02:59:31;101207.50;;;16.01;41.52
63708;BME280;67643;-34.198;22.084;2023-04-15T03:01:59;101210.93;;;16.01;40.96
63708;BME280;67643;-34.198;22.084;2023-04-15T03:04:28;101221.75;;;16.44;40.53
63708;BME280;67643;-34.198;22.084;2023-04-15T03:06:56;101224.35;;;15.87;40.69
63708;BME280;67643;-34.198;22.084;2023-04-15T03:09:25;101230.78;;;16.03;40.70
63708;BME280;67643;-34.198;22.084;2023-04-15T03:11:54;101230.25;;;15.70;41.28
63708;BME280;67643;-34.198;22.084;2023-04-15T03:14:22;101229.15;;;15.70;41.42
63708;BME280;67643;-34.198;22.084;2023-04-15T03:16:51;101230.54;;;15.69;41.36
63708;BME280;67643;-34.198;22.084;2023-04-15T03:19:20;101231.97;;;15.87;41.27
63708;BME280;67643;-34.198;22.084;2023-04-15T03:21:49;101226.96;;;15.64;41.58
63708;BME280;67643;-34.198;22.084;2023-04-15T03:24:17;101231.67;;;15.28;41.99
63708;BME280;67643;-34.198;22.084;2023-04-15T03:26:46;101232.83;;;15.52;41.29
63708;BME280;67643;-34.198;22.084;2023-04-15T03:29:15;101238.80;;;15.31;41.80
63708;BME280;67643;-34.198;22.084;2023-04-15T03:31:43;101241.23;;;15.50;41.51
63708;BME280;67643;-34.198;22.084;2023-04-15T03:34:12;101244.14;;;15.49;41.86
63708;BME280;67643;-34.198;22.084;2023-04-15T03:36:41;101247.19;;;15.31;41.96
63708;BME280;67643;-34.198;22.084;2023-04-15T03:39:09;101249.25;;;15.03;42.12
63708;BME280;67643;-34.198;22.084;2023-04-15T03:41:37;101252.38;;;14.69;42.50
63708;BME280;67643;-34.198;22.084;2023-04-15T03:44:06;101248.50;;;15.44;41.55
63708;BME280;67643;-34.198;22.084;2023-04-15T03:46:34;101259.28;;;15.03;42.16
63708;BME280;67643;-34.198;22.084;2023-04-15T03:49:03;101263.77;;;15.19;41.75
63708;BME280;67643;-34.198;22.084;2023-04-15T03:51:31;101268.67;;;15.64;41.70
63708;BME280;67643;-34.198;22.084;2023-04-15T03:54:00;101274.36;;;15.55;41.53
63708;BME280;67643;-34.198;22.084;2023-04-15T03:56:29;101280.46;;;14.68;42.57
63708;BME280;67643;-34.198;22.084;2023-04-15T03:58:57;101280.04;;;14.92;42.09
63708;BME280;67643;-34.198;22.084;2023-04-15T06:07:03;101312.80;;;12.94;53.78
63708;BME280;67643;-34.198;22.084;2023-04-15T06:09:32;101304.38;;;14.70;49.53
63708;BME280;67643;-34.198;22.084;2023-04-15T06:12:00;101301.69;;;15.38;46.72
63708;BME280;67643;-34.198;22.084;2023-04-15T06:14:29;101296.65;;;15.94;45.64
63708;BME280;67643;-34.198;22.084;2023-04-15T06:16:57;101290.53;;;15.84;44.87
63708;BME280;67643;-34.198;22.084;2023-04-15T06:19:26;101295.61;;;16.72;44.29
63708;BME280;67643;-34.198;22.084;2023-04-15T06:21:54;101299.18;;;16.81;44.20
63708;BME280;67643;-34.198;22.084;2023-04-15T06:24:22;101302.24;;;16.94;43.72
63708;BME280;67643;-34.198;22.084;2023-04-15T06:26:51;101302.35;;;16.87;43.22
63708;BME280;67643;-34.198;22.084;2023-04-15T06:29:19;101301.69;;;17.42;42.74
63708;BME280;67643;-34.198;22.084;2023-04-15T06:31:48;101303.49;;;16.96;42.23
63708;BME280;67643;-34.198;22.084;2023-04-15T06:34:16;101302.35;;;17.12;42.00
63708;BME280;67643;-34.198;22.084;2023-04-15T06:36:45;101305.97;;;17.06;42.01
63708;BME280;67643;-34.198;22.084;2023-04-15T06:39:13;101313.10;;;17.67;41.84
63708;BME280;67643;-34.198;22.084;2023-04-15T06:41:42;101314.13;;;17.38;41.28
63708;BME280;67643;-34.198;22.084;2023-04-15T06:44:11;101319.24;;;17.22;41.70
63708;BME280;67643;-34.198;22.084;2023-04-15T06:46:39;101323.98;;;17.98;41.32
63708;BME280;67643;-34.198;22.084;2023-04-15T06:49:08;101327.82;;;17.79;41.02
63708;BME280;67643;-34.198;22.084;2023-04-15T06:51:36;101323.77;;;17.90;40.64
63708;BME280;67643;-34.198;22.084;2023-04-15T06:54:05;101324.46;;;17.84;41.01
63708;BME280;67643;-34.198;22.084;2023-04-15T06:56:34;101325.67;;;18.30;41.10
63708;BME280;67643;-34.198;22.084;2023-04-15T06:59:03;101326.26;;;17.65;41.12
63708;BME280;67643;-34.198;22.084;2023-04-15T07:01:31;101328.90;;;18.23;40.51
63708;BME280;67643;-34.198;22.084;2023-04-15T07:03:59;101335.04;;;17.53;40.16
63708;BME280;67643;-34.198;22.084;2023-04-15T07:06:28;101331.94;;;18.14;40.01
63708;BME280;67643;-34.198;22.084;2023-04-15T07:08:57;101330.98;;;17.83;39.25
63708;BME280;67643;-34.198;22.084;2023-04-15T07:11:26;101332.52;;;17.74;39.77
63708;BME280;67643;-34.198;22.084;2023-04-15T07:13:56;101334.64;;;18.05;39.53
63708;BME280;67643;-34.198;22.084;2023-04-15T07:16:25;101332.33;;;17.98;39.49
63708;BME280;67643;-34.198;22.084;2023-04-15T07:18:53;101332.97;;;18.14;39.70
63708;BME280;67643;-34.198;22.084;2023-04-15T07:21:21;101339.55;;;18.22;39.68
63708;BME280;67643;-34.198;22.084;2023-04-15T07:23:49;101339.59;;;18.25;39.94
63708;BME280;67643;-34.198;22.084;2023-04-15T07:26:18;101341.90;;;18.31;39.95
63708;BME280;67643;-34.198;22.084;2023-04-15T07:28:47;101340.84;;;18.24;40.01
63708;BME280;67643;-34.198;22.084;2023-04-15T07:31:16;101338.90;;;18.54;39.68
63708;BME280;67643;-34.198;22.084;2023-04-15T07:33:45;101339.58;;;18.58;40.44
63708;BME280;67643;-34.198;22.084;2023-04-15T07:36:13;101337.33;;;18.08;40.14
63708;BME280;67643;-34.198;22.084;2023-04-15T07:38:42;101326.41;;;18.49;39.97
63708;BME280;67643;-34.198;22.084;2023-04-15T07:41:10;101328.20;;;18.33;40.20
63708;BME280;67643;-34.198;22.084;2023-04-15T07:43:39;101322.03;;;18.45;40.13
63708;BME280;67643;-34.198;22.084;2023-04-15T07:46:07;101319.64;;;18.14;40.23
63708;BME280;67643;-34.198;22.084;2023-04-15T07:48:35;101317.26;;;18.67;39.90
63708;BME280;67643;-34.198;22.084;2023-04-15T07:51:04;101314.37;;;18.55;39.91
63708;BME280;67643;-34.198;22.084;2023-04-15T07:53:32;101314.93;;;18.70;39.30
63708;BME280;67643;-34.198;22.084;2023-04-15T07:56:00;101314.63;;;18.69;39.34
63708;BME280;67643;-34.198;22.084;2023-04-15T07:58:29;101313.25;;;18.54;39.44
63708;BME280;67643;-34.198;22.084;2023-04-15T08:00:57;101310.43;;;18.52;39.59
63708;BME280;67643;-34.198;22.084;2023-04-15T08:03:26;101311.38;;;18.74;39.07
63708;BME280;67643;-34.198;22.084;2023-04-15T08:05:54;101311.01;;;18.87;39.31
63708;BME280;67643;-34.198;22.084;2023-04-15T08:08:23;101315.46;;;18.99;39.09
63708;BME280;67643;-34.198;22.084;2023-04-15T08:10:52;101316.12;;;18.92;38.76
63708;BME280;67643;-34.198;22.084;2023-04-15T08:13:21;101316.35;;;18.85;38.99
63708;BME280;67643;-34.198;22.084;2023-04-15T08:16:13;101314.70;;;18.72;38.79
63708;BME280;67643;-34.198;22.084;2023-04-15T08:18:42;101314.60;;;18.81;38.68
63708;BME280;67643;-34.198;22.084;2023-04-15T08:21:10;101314.18;;;18.92;38.42
63708;BME280;67643;-34.198;22.084;2023-04-15T08:23:39;101313.42;;;18.91;37.70
63708;BME280;67643;-34.198;22.084;2023-04-15T08:26:08;101316.05;;;19.38;37.67
63708;BME280;67643;-34.198;22.084;2023-04-15T08:28:38;101312.13;;;18.90;38.58
63708;BME280;67643;-34.198;22.084;2023-04-15T08:31:07;101313.35;;;19.05;37.99
63708;BME280;67643;-34.198;22.084;2023-04-15T08:33:36;101311.73;;;18.76;38.35
63708;BME280;67643;-34.198;22.084;2023-04-15T08:36:05;101306.22;;;18.97;37.99
63708;BME280;67643;-34.198;22.084;2023-04-15T08:38:34;101308.02;;;19.06;37.89
63708;BME280;67643;-34.198;22.084;2023-04-15T08:41:06;101306.62;;;19.22;37.69
63708;BME280;67643;-34.198;22.084;2023-04-15T08:43:42;101306.22;;;18.89;37.67
63708;BME280;67643;-34.198;22.084;2023-04-15T08:46:13;101300.96;;;19.77;37.69
63708;BME280;67643;-34.198;22.084;2023-04-15T08:48:42;101294.19;;;19.26;37.72
63708;BME280;67643;-34.198;22.084;2023-04-15T08:51:11;101289.87;;;19.32;37.68
63708;BME280;67643;-34.198;22.084;2023-04-15T08:53:39;101286.31;;;19.28;37.76
63708;BME280;67643;-34.198;22.084;2023-04-15T08:56:09;101285.88;;;19.59;37.79
63708;BME280;67643;-34.198;22.084;2023-04-15T08:58:39;101285.45;;;19.47;37.60
63708;BME280;67643;-34.198;22.084;2023-04-15T09:01:08;101283.22;;;19.56;37.40
63708;BME280;67643;-34.198;22.084;2023-04-15T09:03:37;101280.79;;;19.10;38.05
63708;BME280;67643;-34.198;22.084;2023-04-15T09:06:06;101284.53;;;19.28;37.73
63708;BME280;67643;-34.198;22.084;2023-04-15T09:08:34;101285.65;;;19.41;37.75
63708;BME280;67643;-34.198;22.084;2023-04-15T09:11:03;101284.19;;;19.58;37.44
63708;BME280;67643;-34.198;22.084;2023-04-15T09:13:32;101284.43;;;19.64;37.48
63708;BME280;67643;-34.198;22.084;2023-04-15T09:16:02;101280.72;;;19.78;37.34
63708;BME280;67643;-34.198;22.084;2023-04-15T09:18:33;101282.79;;;19.54;37.69
63708;BME280;67643;-34.198;22.084;2023-04-15T09:21:06;101281.18;;;19.86;37.20
63708;BME280;67643;-34.198;22.084;2023-04-15T09:23:34;101280.22;;;19.77;37.56
63708;BME280;67643;-34.198;22.084;2023-04-15T09:26:03;101276.89;;;19.76;37.31
63708;BME280;67643;-34.198;22.084;2023-04-15T09:28:33;101278.28;;;19.55;37.88
63708;BME280;67643;-34.198;22.084;2023-04-15T09:31:08;101273.50;;;19.51;37.78
63708;BME280;67643;-34.198;22.084;2023-04-15T09:33:54;101271.39;;;19.54;37.71
63708;BME280;67643;-34.198;22.084;2023-04-15T09:36:22;101267.02;;;19.72;37.68
63708;BME280;67643;-34.198;22.084;2023-04-15T09:38:55;101269.01;;;19.76;37.61
63708;BME280;67643;-34.198;22.084;2023-04-15T09:41:26;101275.26;;;19.27;38.24
63708;BME280;67643;-34.198;22.084;2023-04-15T09:43:55;101267.75;;;19.64;37.73
63708;BME280;67643;-34.198;22.084;2023-04-15T09:46:40;101268.91;;;19.78;37.48
63708;BME280;67643;-34.198;22.084;2023-04-15T09:49:09;101263.45;;;20.13;37.38
63708;BME280;67643;-34.198;22.084;2023-04-15T09:51:38;101260.51;;;19.97;37.29
63708;BME280;67643;-34.198;22.084;2023-04-15T09:54:07;101261.32;;;19.66;37.76
63708;BME280;67643;-34.198;22.084;2023-04-15T09:56:36;101260.53;;;19.99;37.65
63708;BME280;67643;-34.198;22.084;2023-04-15T09:59:05;101259.09;;;19.29;38.76
63708;BME280;67643;-34.198;22.084;2023-04-15T10:01:35;101251.53;;;19.70;38.24
63708;BME280;67643;-34.198;22.084;2023-04-15T10:04:04;101251.04;;;19.99;37.75
63708;BME280;67643;-34.198;22.084;2023-04-15T10:06:33;101250.84;;;19.91;37.42
63708;BME280;67643;-34.198;22.084;2023-04-15T10:09:02;101246.81;;;19.82;37.48
63708;BME280;67643;-34.198;22.084;2023-04-15T10:11:31;101246.33;;;19.89;37.32
63708;BME280;67643;-34.198;22.084;2023-04-15T10:14:01;101247.00;;;20.77;36.39
63708;BME280;67643;-34.198;22.084;2023-04-15T10:16:32;101244.96;;;19.69;37.43
63708;BME280;67643;-34.198;22.084;2023-04-15T10:19:02;101236.30;;;20.50;36.70
63708;BME280;67643;-34.198;22.084;2023-04-15T10:21:30;101233.65;;;20.20;36.34
63708;BME280;67643;-34.198;22.084;2023-04-15T10:24:01;101234.80;;;20.04;36.89
63708;BME280;67643;-34.198;22.084;2023-04-15T10:26:30;101236.60;;;20.23;36.43
63708;BME280;67643;-34.198;22.084;2023-04-15T10:28:59;101231.51;;;20.07;36.82
63708;BME280;67643;-34.198;22.084;2023-04-15T10:31:28;101225.68;;;20.15;36.67
63708;BME280;67643;-34.198;22.084;2023-04-15T10:33:57;101226.88;;;19.91;37.20
63708;BME280;67643;-34.198;22.084;2023-04-15T10:36:26;101227.27;;;20.07;37.16
63708;BME280;67643;-34.198;22.084;2023-04-15T10:38:55;101225.85;;;19.89;37.10
63708;BME280;67643;-34.198;22.084;2023-04-15T10:41:25;101220.06;;;20.29;36.60
63708;BME280;67643;-34.198;22.084;2023-04-15T10:43:55;101220.89;;;20.35;36.34
63708;BME280;67643;-34.198;22.084;2023-04-15T10:46:36;101217.46;;;20.43;36.18
63708;BME280;67643;-34.198;22.084;2023-04-15T10:49:10;101212.59;;;20.45;36.42
63708;BME280;67643;-34.198;22.084;2023-04-15T10:51:41;101205.59;;;20.71;36.09
63708;BME280;67643;-34.198;22.084;2023-04-15T10:54:14;101202.61;;;20.69;36.10
63708;BME280;67643;-34.198;22.084;2023-04-15T10:56:43;101196.05;;;20.47;36.08
63708;BME280;67643;-34.198;22.084;2023-04-15T10:59:11;101188.31;;;20.86;35.20
63708;BME280;67643;-34.198;22.084;2023-04-15T11:01:59;101185.95;;;20.71;35.42
63708;BME280;67643;-34.198;22.084;2023-04-15T11:05:00;101187.64;;;20.65;35.77
63708;BME280;67643;-34.198;22.084;2023-04-15T11:07:38;101184.66;;;20.93;35.26
63708;BME280;67643;-34.198;22.084;2023-04-15T11:11:11;101182.09;;;21.11;35.04
63708;BME280;67643;-34.198;22.084;2023-04-15T11:13:48;101175.42;;;21.07;35.27
63708;BME280;67643;-34.198;22.084;2023-04-15T11:16:17;101169.06;;;20.72;35.30
63708;BME280;67643;-34.198;22.084;2023-04-15T11:18:54;101168.73;;;20.68;35.24
63708;BME280;67643;-34.198;22.084;2023-04-15T11:21:25;101165.95;;;21.06;35.58
63708;BME280;67643;-34.198;22.084;2023-04-15T11:23:54;101162.73;;;20.38;35.41
63708;BME280;67643;-34.198;22.084;2023-04-15T11:26:25;101157.39;;;20.36;35.57
63708;BME280;67643;-34.198;22.084;2023-04-15T11:28:54;101150.15;;;20.42;35.76
63708;BME280;67643;-34.198;22.084;2023-04-15T11:31:22;101149.78;;;21.05;35.33
63708;BME280;67643;-34.198;22.084;2023-04-15T11:33:55;101143.89;;;20.82;35.43
63708;BME280;67643;-34.198;22.084;2023-04-15T11:36:26;101143.83;;;21.00;35.32
63708;BME280;67643;-34.198;22.084;2023-04-15T11:38:57;101140.78;;;20.70;35.59
63708;BME280;67643;-34.198;22.084;2023-04-15T11:41:26;101133.54;;;20.89;35.05
63708;BME280;67643;-34.198;22.084;2023-04-15T11:43:55;101124.98;;;21.16;34.93
63708;BME280;67643;-34.198;22.084;2023-04-15T11:46:29;101122.37;;;20.80;35.68
63708;BME280;67643;-34.198;22.084;2023-04-15T11:48:57;101115.76;;;21.33;35.06
63708;BME280;67643;-34.198;22.084;2023-04-15T11:51:26;101118.77;;;21.03;35.27
63708;BME280;67643;-34.198;22.084;2023-04-15T11:53:59;101113.64;;;20.63;35.22
63708;BME280;67643;-34.198;22.084;2023-04-15T11:56:27;101113.26;;;21.44;34.67
63708;BME280;67643;-34.198;22.084;2023-04-15T11:58:57;101110.94;;;21.03;34.86
63708;BME280;67643;-34.198;22.084;2023-04-15T12:01:32;101107.34;;;21.19;34.92
63708;BME280;67643;-34.198;22.084;2023-04-15T16:12:27;101031.38;;;17.77;47.12
63708;BME280;67643;-34.198;22.084;2023-04-15T16:14:56;101026.14;;;18.91;43.29
63708;BME280;67643;-34.198;22.084;2023-04-15T16:17:24;101030.00;;;19.41;41.58
63708;BME280;67643;-34.198;22.084;2023-04-15T16:19:52;101031.16;;;20.31;40.07
63708;BME280;67643;-34.198;22.084;2023-04-15T16:22:21;101026.66;;;20.51;39.29
63708;BME280;67643;-34.198;22.084;2023-04-15T16:24:49;101026.62;;;20.72;38.91
63708;BME280;67643;-34.198;22.084;2023-04-15T16:27:17;101024.23;;;20.52;38.83
63708;BME280;67643;-34.198;22.084;2023-04-15T16:29:46;101025.13;;;20.78;38.76
63708;BME280;67643;-34.198;22.084;2023-04-15T16:32:14;101028.16;;;20.82;38.61
63708;BME280;67643;-34.198;22.084;2023-04-15T16:34:43;101027.98;;;20.54;38.66
63708;BME280;67643;-34.198;22.084;2023-04-15T16:37:11;101025.17;;;20.69;38.46
63708;BME280;67643;-34.198;22.084;2023-04-15T16:39:39;101025.24;;;20.75;38.37
63708;BME280;67643;-34.198;22.084;2023-04-15T16:42:09;101021.85;;;20.74;38.38
63708;BME280;67643;-34.198;22.084;2023-04-15T16:44:37;101023.11;;;20.59;38.55
63708;BME280;67643;-34.198;22.084;2023-04-15T16:47:05;101029.83;;;20.50;38.70
63708;BME280;67643;-34.198;22.084;2023-04-15T16:49:34;101029.28;;;20.59;38.90
63708;BME280;67643;-34.198;22.084;2023-04-15T16:52:03;101028.19;;;20.30;39.53
63708;BME280;67643;-34.198;22.084;2023-04-15T16:54:32;101026.03;;;20.31;39.39
63708;BME280;67643;-34.198;22.084;2023-04-15T16:57:00;101030.42;;;20.11;39.90
63708;BME280;67643;-34.198;22.084;2023-04-15T16:59:29;101032.22;;;19.51;40.76
63708;BME280;67643;-34.198;22.084;2023-04-15T17:01:57;101032.83;;;19.14;41.49
63708;BME280;67643;-34.198;22.084;2023-04-15T17:04:26;101036.22;;;19.32;41.23
63708;BME280;67643;-34.198;22.084;2023-04-15T17:06:55;101036.92;;;19.43;41.46
63708;BME280;67643;-34.198;22.084;2023-04-15T17:09:23;101040.15;;;18.91;41.89
63708;BME280;67643;-34.198;22.084;2023-04-15T17:11:51;101041.12;;;19.00;42.22
63708;BME280;67643;-34.198;22.084;2023-04-15T17:14:20;101042.65;;;19.11;42.01
63708;BME280;67643;-34.198;22.084;2023-04-15T17:16:49;101045.37;;;18.77;42.12
63708;BME280;67643;-34.198;22.084;2023-04-15T17:19:17;101047.19;;;19.26;41.79
63708;BME280;67643;-34.198;22.084;2023-04-15T17:21:46;101045.76;;;19.11;42.36
63708;BME280;67643;-34.198;22.084;2023-04-15T17:24:14;101047.37;;;19.50;41.73
63708;BME280;67643;-34.198;22.084;2023-04-15T17:26:43;101050.22;;;19.04;41.62
63708;BME280;67643;-34.198;22.084;2023-04-15T17:29:11;101051.13;;;19.16;41.34
63708;BME280;67643;-34.198;22.084;2023-04-15T17:31:40;101052.05;;;19.68;40.54
63708;BME280;67643;-34.198;22.084;2023-04-15T17:34:08;101048.06;;;18.86;41.19
63708;BME280;67643;-34.198;22.084;2023-04-15T17:36:37;101046.78;;;18.29;42.30
63708;BME280;67643;-34.198;22.084;2023-04-15T17:39:06;101044.19;;;19.25;41.22
63708;BME280;67643;-34.198;22.084;2023-04-15T17:41:34;101038.26;;;19.51;40.74
63708;BME280;67643;-34.198;22.084;2023-04-15T17:44:03;101040.27;;;19.25;41.07
63708;BME280;67643;-34.198;22.084;2023-04-15T17:46:31;101039.25;;;18.93;41.30
63708;BME280;67643;-34.198;22.084;2023-04-15T17:49:00;101042.40;;;18.58;41.93
63708;BME280;67643;-34.198;22.084;2023-04-15T17:51:28;101043.74;;;19.11;41.53
63708;BME280;67643;-34.198;22.084;2023-04-15T17:53:57;101046.62;;;18.33;42.78
63708;BME280;67643;-34.198;22.084;2023-04-15T17:56:26;101047.95;;;18.33;42.80
63708;BME280;67643;-34.198;22.084;2023-04-15T17:58:54;101049.61;;;18.86;41.70
63708;BME280;67643;-34.198;22.084;2023-04-15T18:01:23;101049.51;;;19.21;41.29
63708;BME280;67643;-34.198;22.084;2023-04-15T18:03:52;101050.59;;;18.94;42.07
63708;BME280;67643;-34.198;22.084;2023-04-15T18:06:20;101049.27;;;19.24;42.29
63708;BME280;67643;-34.198;22.084;2023-04-15T18:08:48;101053.01;;;18.94;43.01
63708;BME280;67643;-34.198;22.084;2023-04-15T18:11:18;101051.72;;;18.62;42.72
63708;BME280;67643;-34.198;22.084;2023-04-15T18:13:47;101055.86;;;18.79;42.40
63708;BME280;67643;-34.198;22.084;2023-04-15T18:16:16;101057.73;;;18.79;42.44
63708;BME280;67643;-34.198;22.084;2023-04-15T18:18:44;101054.27;;;18.75;42.83
63708;BME280;67643;-34.198;22.084;2023-04-15T18:21:13;101054.06;;;18.81;43.09
63708;BME280;67643;-34.198;22.084;2023-04-15T18:23:41;101051.10;;;18.38;43.45
63708;BME280;67643;-34.198;22.084;2023-04-15T18:26:10;101048.71;;;18.08;43.91
63708;BME280;67643;-34.198;22.084;2023-04-15T18:28:39;101048.50;;;18.51;43.68
63708;BME280;67643;-34.198;22.084;2023-04-15T18:31:08;101047.59;;;18.54;43.22
63708;BME280;67643;-34.198;22.084;2023-04-15T18:33:37;101046.61;;;18.98;42.89
63708;BME280;67643;-34.198;22.084;2023-04-15T18:36:05;101049.15;;;19.00;42.56
63708;BME280;67643;-34.198;22.084;2023-04-15T18:38:35;101052.18;;;19.08;42.42
63708;BME280;67643;-34.198;22.084;2023-04-15T18:41:04;101052.49;;;19.20;41.72
63708;BME280;67643;-34.198;22.084;2023-04-15T18:43:33;101047.33;;;18.77;42.29
63708;BME280;67643;-34.198;22.084;2023-04-15T18:46:02;101046.45;;;18.81;42.84
63708;BME280;67643;-34.198;22.084;2023-04-15T18:48:31;101047.26;;;18.26;43.38
63708;BME280;67643;-34.198;22.084;2023-04-15T18:50:59;101050.93;;;18.66;43.17
63708;BME280;67643;-34.198;22.084;2023-04-15T18:53:27;101049.41;;;18.49;42.84
63708;BME280;67643;-34.198;22.084;2023-04-15T18:55:56;101046.44;;;18.70;43.29